Alakanuk, Alaska
Current Conditions -  °F | °C
As of 6:16 PM on Saturday 20 Dec 2014 (Local Time) from PAEM Reporting Station
Clear Clear  
Wind Chill: -8°   Ceiling: Unl
Heat Index:   Visibility: 10mi
Dew Point: -2°   Wind: 6mph
Humidity: 78%   Direction: 350°N
Pressure: 29.24"   Gusts: NA
Location:  62.69°N, 164.62°W
Report Text: PAEM 210316Z AUTO 35005KT 10SM CLR M16/M19 A2924 RMK AO1
Loading
Personal Weather Stations






























Interactive Weather Map New forecast layout! Learn more

10-Day Weather Forecast

Advertisements
Track Severe Weather on mobile